Time;durP1;ratioP1;P1;durP2;ratioP2;P2;SDS_P1;SDS_P2;PMS_P1;PMS_P2;Temp;Humidity;BMP_temperature;BMP_pressure;BME280_temperature;BME280_humidity;BME280_pressure;Samples;Min_cycle;Max_cycle;Signal;HPM_P1;HPM_P2
2022/04/05 00:01:10;;;;;;;19.58;12.68;;;;;;;0.90;92.58;99861.63;4501834;31;20126;-71
2022/04/05 00:07:00;;;;;;;19.65;13.13;;;;;;;0.91;91.96;99852.97;4501757;31;20151;-71
2022/04/05 00:09:28;;;;;;;16.98;12.30;;;;;;;0.92;91.93;99846.09;4501668;31;20075;-71
2022/04/05 00:11:55;;;;;;;22.42;12.98;;;;;;;0.95;92.02;99847.03;4501616;31;20515;-71
2022/04/05 00:14:22;;;;;;;17.15;12.23;;;;;;;0.98;92.02;99840.13;4501783;31;20100;-71
2022/04/05 00:16:49;;;;;;;19.00;12.50;;;;;;;1.01;92.00;99832.41;4501700;31;20100;-71
2022/04/05 00:19:19;;;;;;;18.98;12.77;;;;;;;1.01;91.79;99837.59;4501478;31;20387;-71
2022/04/05 00:21:46;;;;;;;19.12;13.23;;;;;;;0.92;92.39;99833.13;4501521;31;20096;-71
2022/04/05 00:24:13;;;;;;;21.50;13.27;;;;;;;0.93;92.04;99830.56;4501782;31;20100;-71
2022/04/05 00:26:40;;;;;;;21.35;13.57;;;;;;;0.92;92.35;99827.94;4501600;31;20180;-71
2022/04/05 00:29:08;;;;;;;21.58;13.38;;;;;;;0.91;92.45;99827.03;4500603;31;20088;-71
2022/04/05 00:31:36;;;;;;;20.85;13.27;;;;;;;0.96;92.55;99829.75;4501790;31;20190;-71
2022/04/05 00:34:04;;;;;;;20.25;12.65;;;;;;;0.92;92.89;99818.44;4501504;31;20096;-71
2022/04/05 00:36:31;;;;;;;20.33;12.88;;;;;;;0.98;92.54;99821.97;4501506;31;20107;-71
2022/04/05 00:38:58;;;;;;;23.95;13.85;;;;;;;1.05;92.21;99829.88;4501559;31;20134;-71
2022/04/05 00:41:26;;;;;;;21.30;14.00;;;;;;;1.11;91.62;99826.53;4501363;31;20084;-71
2022/04/05 00:43:53;;;;;;;20.35;13.43;;;;;;;1.15;91.50;99818.81;4501455;31;20518;-71
2022/04/05 00:46:20;;;;;;;22.25;13.48;;;;;;;1.24;91.27;99815.53;4501471;31;20478;-71
2022/04/05 00:48:57;;;;;;;23.52;13.90;;;;;;;1.30;90.84;99819.91;4501474;31;20083;-71
2022/04/05 00:51:25;;;;;;;21.27;13.60;;;;;;;1.30;90.62;99813.00;4501565;31;20076;-71
2022/04/05 00:53:55;;;;;;;23.48;12.88;;;;;;;1.33;90.13;99812.19;4501524;31;20452;-71
2022/04/05 00:56:22;;;;;;;20.65;13.73;;;;;;;1.41;89.86;99808.88;4501328;31;20519;-71
2022/04/05 00:58:52;;;;;;;20.00;12.70;;;;;;;1.48;89.93;99812.41;4501346;31;20159;-71
2022/04/05 01:01:21;;;;;;;18.92;12.40;;;;;;;1.53;89.24;99804.72;4501324;31;20095;-71
2022/04/05 01:03:51;;;;;;;21.17;13.25;;;;;;;1.55;89.34;99796.09;4501250;31;20179;-71
2022/04/05 01:06:22;;;;;;;27.37;13.68;;;;;;;1.53;89.42;99799.53;4501234;31;20099;-71
2022/04/05 01:08:50;;;;;;;23.65;12.55;;;;;;;1.61;88.53;99795.31;4501224;31;20420;-71
2022/04/05 01:11:17;;;;;;;20.52;12.27;;;;;;;1.62;88.92;99786.66;4501097;31;20121;-71
2022/04/05 01:13:44;;;;;;;21.65;14.02;;;;;;;1.71;88.79;99797.19;4501010;31;20111;-71
2022/04/05 01:16:12;;;;;;;23.08;13.05;;;;;;;1.70;89.20;99791.97;4501020;31;20558;-71
2022/04/05 01:18:40;;;;;;;18.80;11.88;;;;;;;1.71;88.59;99796.34;4500875;31;20525;-71
2022/04/05 01:21:08;;;;;;;24.67;13.05;;;;;;;1.74;88.63;99796.38;4500950;31;20095;-71
2022/04/05 01:23:35;;;;;;;20.92;13.07;;;;;;;1.72;88.73;99798.06;4501104;31;20215;-71
2022/04/05 01:26:03;;;;;;;19.67;12.43;;;;;;;1.72;88.74;99793.75;4500969;31;20171;-71
2022/04/05 01:28:30;;;;;;;20.17;12.23;;;;;;;1.83;88.20;99791.28;4501138;31;20496;-71
2022/04/05 01:30:57;;;;;;;21.90;10.95;;;;;;;1.87;88.27;99790.47;4500781;31;20130;-71
2022/04/05 01:33:24;;;;;;;18.73;11.65;;;;;;;1.91;87.86;99787.97;4500818;31;20369;-71
2022/04/05 01:35:51;;;;;;;18.92;11.85;;;;;;;1.94;87.92;99786.25;4500887;31;20164;-71
2022/04/05 01:38:19;;;;;;;22.30;12.25;;;;;;;1.92;88.24;99787.09;4500679;31;20183;-71
2022/04/05 01:40:47;;;;;;;16.10;11.60;;;;;;;1.90;88.38;99782.72;4501429;31;20571;-71
2022/04/05 01:43:14;;;;;;;18.90;12.82;;;;;;;1.96;88.50;99800.12;4502691;31;20100;-71
2022/04/05 01:45:43;;;;;;;18.42;12.32;;;;;;;2.06;88.01;99808.06;4502729;31;20467;-71
2022/04/05 01:48:10;;;;;;;18.23;11.45;;;;;;;2.04;87.60;99794.19;4502862;31;20136;-72
2022/04/05 01:50:37;;;;;;;20.80;12.43;;;;;;;2.00;88.10;99794.13;4502723;31;20450;-71
2022/04/05 01:53:05;;;;;;;20.40;12.35;;;;;;;2.02;87.75;99792.44;4502776;31;20111;-71
2022/04/05 01:55:32;;;;;;;24.65;13.52;;;;;;;2.05;87.67;99787.25;4502723;31;20523;-71
2022/04/05 01:58:02;;;;;;;23.08;13.32;;;;;;;1.96;88.42;99782.81;4502678;31;20092;-71
2022/04/05 02:00:29;;;;;;;21.85;13.52;;;;;;;1.92;88.80;99784.50;4502632;31;20147;-71
2022/04/05 02:02:57;;;;;;;23.70;13.57;;;;;;;1.91;89.19;99787.97;4502652;31;20199;-71
2022/04/05 02:05:24;;;;;;;32.22;16.60;;;;;;;1.88;89.22;99771.47;4488047;31;20092;-71
2022/04/05 02:07:51;;;;;;;32.72;18.12;;;;;;;1.89;89.22;99771.47;4502581;31;20585;-71
2022/04/05 02:10:19;;;;;;;29.27;14.90;;;;;;;1.87;89.49;99760.22;4502534;31;20498;-71
2022/04/05 02:12:46;;;;;;;29.80;15.90;;;;;;;1.92;88.90;99770.66;4502769;31;20395;-71
2022/04/05 02:15:14;;;;;;;28.20;15.15;;;;;;;1.95;88.60;99764.63;4502605;31;20103;-71
2022/04/05 02:18:02;;;;;;;24.80;14.70;;;;;;;1.95;88.67;99767.22;4502402;31;20450;-71
2022/04/05 02:20:30;;;;;;;25.15;14.30;;;;;;;2.02;88.06;99769.03;4502690;31;20103;-71
2022/04/05 02:22:58;;;;;;;23.65;13.90;;;;;;;1.96;88.29;99772.44;4502394;31;20147;-71
2022/04/05 02:25:26;;;;;;;21.75;13.38;;;;;;;2.02;88.08;99771.66;4502501;31;20100;-71
2022/04/05 02:27:54;;;;;;;19.92;12.73;;;;;;;2.00;88.30;99770.75;4502541;31;20092;-71
2022/04/05 02:30:23;;;;;;;24.40;12.27;;;;;;;2.05;87.99;99766.47;4502537;31;20098;-71
2022/04/05 02:32:52;;;;;;;25.27;13.32;;;;;;;2.10;87.41;99768.28;4502355;31;20096;-71
2022/04/05 02:35:19;;;;;;;20.02;13.35;;;;;;;2.16;87.00;99767.50;4502633;31;20104;-71
2022/04/05 02:37:47;;;;;;;19.92;11.80;;;;;;;2.19;87.51;99758.84;4502601;31;20083;-71
2022/04/05 02:40:15;;;;;;;19.70;12.68;;;;;;;2.27;86.58;99757.22;4502385;31;20103;-71
2022/04/05 02:42:42;;;;;;;20.37;12.70;;;;;;;2.11;87.38;99758.75;4502192;31;20176;-71
2022/04/05 02:45:11;;;;;;;18.98;12.07;;;;;;;2.05;87.83;99750.88;4502532;31;20423;-71
2022/04/05 02:47:39;;;;;;;18.02;12.13;;;;;;;2.04;88.07;99742.22;4502602;31;20117;-71
2022/04/05 02:50:07;;;;;;;22.70;12.25;;;;;;;2.00;87.55;99740.44;4502461;31;20090;-71
2022/04/05 02:52:34;;;;;;;15.82;11.02;;;;;;;1.96;88.07;99736.06;4501638;31;20118;-71
2022/04/05 02:55:03;;;;;;;18.85;11.68;;;;;;;2.01;87.91;99739.56;4502282;31;20524;-71
2022/04/05 02:57:34;;;;;;;19.12;12.13;;;;;;;2.04;87.96;99729.22;4502466;31;20178;-71
2022/04/05 03:00:04;;;;;;;19.95;13.48;;;;;;;2.06;88.08;99729.25;4502451;31;20447;-71
2022/04/05 03:02:31;;;;;;;19.67;11.63;;;;;;;2.09;87.69;99731.88;4502003;31;20131;-71
2022/04/05 03:04:58;;;;;;;19.23;11.57;;;;;;;2.10;88.49;99725.81;4502391;31;20164;-71
2022/04/05 03:07:26;;;;;;;20.30;12.95;;;;;;;2.13;88.12;99712.88;4502115;31;20106;-71
2022/04/05 03:09:53;;;;;;;22.60;12.43;;;;;;;2.20;87.80;99716.41;4502041;31;20520;-71
2022/04/05 03:12:21;;;;;;;19.20;12.70;;;;;;;2.24;87.52;99716.47;4502458;31;20103;-71
2022/04/05 03:14:49;;;;;;;21.85;13.80;;;;;;;2.23;87.89;99714.72;4502035;31;20096;-71
2022/04/05 03:17:17;;;;;;;23.10;13.85;;;;;;;2.26;86.82;99706.06;4502162;31;20117;-71
2022/04/05 03:19:44;;;;;;;25.15;13.48;;;;;;;2.22;87.53;99701.69;4502186;31;20174;-71
2022/04/05 03:22:12;;;;;;;20.48;13.20;;;;;;;2.26;87.39;99704.37;4502103;31;20225;-71
2022/04/05 03:24:39;;;;;;;29.15;14.77;;;;;;;2.26;88.19;99704.37;4502109;31;20115;-71
2022/04/05 03:27:07;;;;;;;24.15;14.48;;;;;;;2.23;88.49;99704.31;4501856;31;20448;-71
2022/04/05 03:29:35;;;;;;;24.25;13.65;;;;;;;2.17;88.79;99704.25;4501907;31;20087;-71
2022/04/05 03:32:03;;;;;;;24.70;14.52;;;;;;;2.20;88.55;99700.81;4502080;31;20492;-71
2022/04/05 03:34:30;;;;;;;19.65;12.73;;;;;;;2.22;88.29;99707.75;4501984;31;20104;-71
2022/04/05 03:36:58;;;;;;;21.12;12.30;;;;;;;2.26;88.18;99699.16;4502090;31;20092;-71
2022/04/05 03:39:26;;;;;;;20.67;12.43;;;;;;;2.19;88.08;99697.34;4502140;31;20098;-71
2022/04/05 03:41:53;;;;;;;22.55;12.90;;;;;;;2.15;88.66;99691.22;4501978;31;20134;-71
2022/04/05 03:44:21;;;;;;;24.17;13.35;;;;;;;2.17;88.81;99693.84;4501868;31;20121;-71
2022/04/05 03:46:48;;;;;;;21.85;12.73;;;;;;;2.18;88.81;99698.19;4502046;31;20079;-71
2022/04/05 03:49:16;;;;;;;20.95;13.05;;;;;;;2.18;88.40;99690.38;4502069;31;20087;-71
2022/04/05 03:51:50;;;;;;;19.50;11.52;;;;;;;2.25;88.25;99696.53;4502163;31;20080;-71
2022/04/05 03:54:18;;;;;;;25.00;12.60;;;;;;;2.20;87.94;99688.69;4502056;31;20127;-71
2022/04/05 03:56:45;;;;;;;19.15;13.20;;;;;;;2.14;89.38;99696.41;4510241;31;20079;-71
2022/04/05 03:59:13;;;;;;;21.48;12.77;;;;;;;2.22;89.09;99699.97;4517514;31;20121;-71
2022/04/05 04:01:40;;;;;;;21.95;12.25;;;;;;;2.13;89.31;99692.94;4502844;31;20133;-71
2022/04/05 04:04:09;;;;;;;20.52;12.65;;;;;;;2.14;89.72;99702.47;4500573;31;20107;-71
2022/04/05 04:06:36;;;;;;;22.08;13.02;;;;;;;2.17;89.23;99699.06;4501642;31;20483;-71
2022/04/05 04:09:04;;;;;;;22.37;13.30;;;;;;;2.14;89.68;99699.88;4501805;31;20083;-71
2022/04/05 04:11:32;;;;;;;19.90;12.52;;;;;;;2.17;89.79;99696.47;4501540;31;20163;-71
2022/04/05 04:13:59;;;;;;;22.55;13.18;;;;;;;2.18;89.32;99700.78;4517393;31;20134;-71
2022/04/05 04:16:26;;;;;;;22.00;12.90;;;;;;;2.15;90.23;99687.75;4517763;31;20141;-71
2022/04/05 04:18:54;;;;;;;19.90;12.55;;;;;;;2.16;89.99;99692.12;4517198;31;20114;-71
2022/04/05 04:21:22;;;;;;;21.85;13.73;;;;;;;2.13;89.87;99695.56;4517629;31;20541;-71
2022/04/05 04:23:49;;;;;;;18.17;12.35;;;;;;;2.15;89.76;99693.81;4517609;31;20178;-71
2022/04/05 04:26:17;;;;;;;24.25;12.25;;;;;;;2.14;89.96;99693.81;4517467;31;20084;-71
2022/04/05 04:28:44;;;;;;;21.67;12.88;;;;;;;2.13;89.85;99698.16;4517458;31;20450;-71
2022/04/05 04:31:15;;;;;;;21.27;12.32;;;;;;;2.15;90.53;99695.56;4517310;31;20488;-71
2022/04/05 04:33:42;;;;;;;18.08;12.43;;;;;;;2.17;90.68;99696.47;4517524;31;20119;-71
2022/04/05 04:36:10;;;;;;;20.75;13.18;;;;;;;2.16;90.39;99707.72;4517310;31;20279;-71
2022/04/05 04:38:38;;;;;;;19.65;12.85;;;;;;;2.17;90.31;99698.19;4517408;31;20439;-71
2022/04/05 04:41:05;;;;;;;23.85;12.35;;;;;;;2.15;90.77;99701.63;4517376;31;20141;-72
2022/04/05 04:43:32;;;;;;;20.60;12.40;;;;;;;2.20;90.50;99693.03;4516963;31;20099;-71
2022/04/05 04:46:01;;;;;;;21.37;13.75;;;;;;;2.21;90.60;99698.22;4517296;31;20079;-72
2022/04/05 04:48:28;;;;;;;22.17;13.18;;;;;;;2.22;90.25;99696.50;4514954;31;20083;-71
2022/04/05 04:50:55;;;;;;;23.58;13.70;;;;;;;2.23;90.24;99703.47;4501531;31;20103;-71
2022/04/05 04:53:23;;;;;;;25.90;14.15;;;;;;;2.20;90.72;99704.28;4502131;31;20092;-71
2022/04/05 04:55:51;;;;;;;23.55;14.15;;;;;;;2.23;90.72;99706.94;4501973;31;20739;-71
2022/04/05 04:58:35;;;;;;;28.20;14.45;;;;;;;2.26;90.65;99706.06;4502061;31;20134;-71
2022/04/05 05:01:02;;;;;;;23.87;14.73;;;;;;;2.28;90.45;99704.37;4502116;31;20530;-71
2022/04/05 05:03:30;;;;;;;25.92;14.77;;;;;;;2.26;90.53;99700.88;4501788;31;20104;-71
2022/04/05 05:05:58;;;;;;;26.35;14.20;;;;;;;2.26;90.41;99706.06;4502078;31;20076;-72
2022/04/05 05:08:26;;;;;;;21.83;13.35;;;;;;;2.31;90.57;99707.00;4501976;31;20100;-71
2022/04/05 05:10:53;;;;;;;27.40;13.75;;;;;;;2.34;90.60;99700.09;4501705;31;20143;-71
2022/04/05 05:13:20;;;;;;;21.02;12.15;;;;;;;2.46;90.44;99698.47;4501818;31;20096;-71
2022/04/05 05:15:49;;;;;;;21.37;13.05;;;;;;;2.51;90.18;99694.19;4501106;31;20147;-72
2022/04/05 05:18:17;;;;;;;18.45;12.30;;;;;;;2.64;89.72;99686.50;4501436;31;20156;-71
2022/04/05 05:20:44;;;;;;;23.90;13.32;;;;;;;2.79;89.33;99700.50;4501465;31;20207;-71
2022/04/05 05:23:12;;;;;;;18.10;11.57;;;;;;;2.81;89.19;99698.81;4500549;31;20195;-71
2022/04/05 05:25:39;;;;;;;19.95;12.13;;;;;;;2.87;88.27;99694.53;4500332;31;20431;-72
2022/04/05 05:28:06;;;;;;;24.42;12.60;;;;;;;2.95;88.30;99697.19;4500759;31;20133;-71
2022/04/05 05:30:34;;;;;;;19.52;11.60;;;;;;;3.11;88.04;99692.97;4500623;31;20096;-72
2022/04/05 05:33:02;;;;;;;23.87;12.50;;;;;;;3.20;87.17;99687.81;4500492;31;20099;-73
2022/04/05 05:35:29;;;;;;;20.48;12.85;;;;;;;3.36;86.82;99694.00;4500796;31;20080;-72
2022/04/05 05:37:56;;;;;;;24.83;12.55;;;;;;;3.55;86.64;99692.38;4500387;31;20079;-72
2022/04/05 05:40:24;;;;;;;24.08;12.18;;;;;;;3.69;85.00;99698.50;4500298;31;20443;-72
2022/04/05 05:43:02;;;;;;;25.30;12.70;;;;;;;3.77;84.44;99701.16;4500843;31;20471;-72
2022/04/05 05:45:32;;;;;;;32.00;12.52;;;;;;;3.72;83.85;99705.47;4500544;31;20143;-72
2022/04/05 05:48:00;;;;;;;20.98;11.82;;;;;;;3.89;84.38;99705.53;4500288;31;20499;-73
2022/04/05 05:50:27;;;;;;;27.08;11.85;;;;;;;3.83;83.47;99699.44;4515492;31;20485;-73
2022/04/05 05:52:55;;;;;;;31.62;12.40;;;;;;;3.87;84.39;99702.06;4516468;31;20175;-72
2022/04/05 05:55:23;;;;;;;32.67;12.43;;;;;;;3.91;83.35;99704.69;4515981;31;20492;-71
2022/04/05 05:57:50;;;;;;;24.02;12.57;;;;;;;4.02;84.13;99705.59;4516178;31;20083;-72
2022/04/05 06:00:22;;;;;;;22.58;11.85;;;;;;;4.20;82.40;99712.59;4516243;31;20581;-72
2022/04/05 06:03:01;;;;;;;31.58;12.48;;;;;;;4.28;82.22;99710.91;4515838;31;20095;-71
2022/04/05 06:05:30;;;;;;;29.33;12.50;;;;;;;4.28;82.34;99720.47;4515280;31;20312;-71
2022/04/05 06:07:58;;;;;;;19.45;12.02;;;;;;;4.34;82.78;99714.38;4515473;31;20533;-72
2022/04/05 06:10:26;;;;;;;17.98;11.90;;;;;;;4.35;82.17;99716.12;4515575;31;20103;-73
2022/04/05 06:12:55;;;;;;;25.77;13.38;;;;;;;4.38;81.74;99717.03;4516223;31;20179;-71
2022/04/05 06:15:25;;;;;;;23.62;12.65;;;;;;;4.45;82.11;99712.66;4516027;31;20096;-72
2022/04/05 06:17:52;;;;;;;21.15;13.02;;;;;;;4.63;81.22;99724.88;4515579;31;20079;-72
2022/04/05 06:20:21;;;;;;;23.55;11.90;;;;;;;4.69;80.97;99719.66;4516105;31;20095;-71
2022/04/05 06:22:50;;;;;;;34.30;15.82;;;;;;;4.94;80.12;99723.16;4513228;31;20274;-71
2022/04/05 06:25:20;;;;;;;19.87;12.15;;;;;;;5.08;79.76;99717.94;4515862;31;20143;-71
2022/04/05 06:27:47;;;;;;;19.45;12.23;;;;;;;5.23;79.07;99726.66;4516774;31;20459;-72
2022/04/05 06:30:16;;;;;;;22.17;12.18;;;;;;;5.37;78.21;99716.19;4519172;31;20111;-72
2022/04/05 06:32:44;;;;;;;38.13;21.95;;;;;;;5.41;77.64;99717.06;4518720;31;20100;-72
2022/04/05 06:35:12;;;;;;;22.13;12.55;;;;;;;5.71;77.06;99713.50;4518897;31;20156;-71
2022/04/05 06:37:43;;;;;;;21.55;11.10;;;;;;;5.80;76.19;99723.06;4518570;31;20225;-72
2022/04/05 06:40:12;;;;;;;14.57;10.20;;;;;;;5.83;75.47;99712.56;4504277;31;20968;-72
2022/04/05 06:42:42;;;;;;;20.40;9.98;;;;;;;6.03;75.32;99713.41;4518917;31;20103;-71
2022/04/05 06:45:17;;;;;;;14.48;10.13;;;;;;;6.32;74.83;99707.16;4519012;31;20091;-72
2022/04/05 06:47:47;;;;;;;19.60;10.40;;;;;;;6.40;74.26;99701.03;4519001;31;20075;-72
2022/04/05 06:50:17;;;;;;;19.60;10.57;;;;;;;6.44;73.05;99700.12;4505218;31;20371;-72
2022/04/05 06:52:44;;;;;;;20.75;10.93;;;;;;;6.37;73.77;99708.03;4502865;31;20210;-73
2022/04/05 06:55:11;;;;;;;19.42;10.75;;;;;;;6.56;73.12;99711.37;4502776;31;20084;-72
2022/04/05 06:57:39;;;;;;;24.00;10.70;;;;;;;6.59;72.59;99716.59;4502773;31;20159;-72
2022/04/05 07:00:09;;;;;;;22.73;9.65;;;;;;;6.42;73.97;99716.69;4501982;31;20092;-72
2022/04/05 07:02:36;;;;;;;19.58;9.30;;;;;;;6.29;74.39;99717.63;4502276;31;20495;-72
2022/04/05 07:05:05;;;;;;;23.33;10.15;;;;;;;6.21;74.31;99710.69;4502958;31;20084;-73
2022/04/05 07:07:32;;;;;;;22.13;10.73;;;;;;;6.61;73.03;99700.03;4502911;31;20146;-73
2022/04/05 07:09:59;;;;;;;23.98;10.20;;;;;;;7.09;71.67;99704.88;4502705;31;20436;-72
2022/04/05 07:12:26;;;;;;;23.80;10.32;;;;;;;7.28;71.37;99702.94;4502781;31;20481;-72
2022/04/05 07:14:53;;;;;;;14.65;9.38;;;;;;;7.24;70.93;99698.63;4503025;31;20080;-73
2022/04/05 07:17:21;;;;;;;15.48;9.35;;;;;;;7.53;70.42;99695.75;4502839;31;20094;-74
2022/04/05 07:19:48;;;;;;;13.15;8.57;;;;;;;7.66;70.03;99706.06;4502853;31;20885;-73
2022/04/05 07:22:15;;;;;;;17.42;9.05;;;;;;;7.79;69.53;99700.69;4502817;31;20155;-73
2022/04/05 07:24:42;;;;;;;16.02;8.48;;;;;;;7.89;70.46;99704.94;4502329;31;20491;-72
2022/04/05 07:27:10;;;;;;;11.82;7.93;;;;;;;7.98;69.29;99717.94;4514172;31;20099;-72
2022/04/05 07:29:37;;;;;;;25.45;8.70;;;;;;;8.00;68.77;99708.28;4517167;31;20798;-72
2022/04/05 07:32:05;;;;;;;13.30;7.35;;;;;;;8.44;68.82;99699.00;4495497;31;20142;-73
2022/04/05 07:34:32;;;;;;;15.73;7.25;;;;;;;8.64;67.31;99693.47;4502273;31;20144;-73
2022/04/05 07:37:00;;;;;;;15.23;7.93;;;;;;;8.68;65.76;99689.88;4502435;31;20164;-73
2022/04/05 07:39:27;;;;;;;12.10;8.10;;;;;;;8.82;66.49;99695.78;4511985;31;20162;-72
2022/04/05 07:41:54;;;;;;;13.48;7.55;;;;;;;8.83;65.98;99697.56;4518480;31;20534;-72
2022/04/05 07:44:22;;;;;;;14.45;7.30;;;;;;;8.65;66.67;99686.44;4517421;31;20355;-72
2022/04/05 07:46:49;;;;;;;11.20;7.50;;;;;;;8.64;66.71;99692.59;4517912;31;20101;-72
2022/04/05 07:49:17;;;;;;;12.40;7.37;;;;;;;8.46;68.04;99677.97;4510350;31;20100;-73
2022/04/05 07:51:44;;;;;;;16.12;7.12;;;;;;;8.57;67.60;99676.06;4501245;31;20107;-72
2022/04/05 07:54:11;;;;;;;9.98;6.37;;;;;;;8.69;67.50;99673.22;4501152;31;20814;-72
2022/04/05 07:56:39;;;;;;;10.45;6.60;;;;;;;8.90;67.47;99679.03;4501458;31;20156;-72
2022/04/05 07:59:06;;;;;;;14.15;6.37;;;;;;;8.84;65.63;99686.16;4501246;31;20095;-72
2022/04/05 08:01:33;;;;;;;8.95;5.62;;;;;;;8.88;63.79;99683.47;4506353;31;20099;-73
2022/04/05 08:04:01;;;;;;;11.50;6.12;;;;;;;8.96;64.12;99682.44;4509784;31;20091;-72
2022/04/05 08:06:29;;;;;;;9.80;5.95;;;;;;;9.15;63.11;99685.66;4518578;31;21024;-72
2022/04/05 08:08:56;;;;;;;9.00;5.32;;;;;;;9.31;61.38;99691.47;4518433;31;20100;-71
2022/04/05 08:11:26;;;;;;;9.55;5.28;;;;;;;9.46;60.40;99691.19;4518447;31;20454;-72
2022/04/05 08:13:53;;;;;;;11.07;5.35;;;;;;;9.40;58.68;99686.06;4518523;31;20413;-72
2022/04/05 08:16:28;;;;;;;10.38;6.03;;;;;;;9.75;58.70;99685.41;4518404;31;20079;-72
2022/04/05 08:18:55;;;;;;;12.90;5.97;;;;;;;9.82;57.31;99681.75;4518371;31;20092;-73
2022/04/05 08:21:22;;;;;;;9.55;6.65;;;;;;;9.99;58.37;99683.16;4518507;31;20100;-72
2022/04/05 08:23:52;;;;;;;13.23;6.37;;;;;;;10.35;58.98;99681.53;4502974;31;20104;-72
2022/04/05 08:26:19;;;;;;;8.30;5.75;;;;;;;10.38;56.05;99677.97;4502256;31;20083;-72
2022/04/05 08:28:55;;;;;;;10.98;6.35;;;;;;;10.15;56.33;99687.22;4502459;31;20123;-72
2022/04/05 08:31:23;;;;;;;13.38;6.62;;;;;;;10.33;58.63;99682.47;4502004;31;20151;-72
2022/04/05 08:33:51;;;;;;;10.90;6.18;;;;;;;10.42;57.79;99690.16;4502374;31;20741;-73
2022/04/05 08:36:18;;;;;;;11.07;6.22;;;;;;;10.68;56.37;99686.94;4502477;31;20087;-70
2022/04/05 08:38:46;;;;;;;7.62;5.68;;;;;;;10.72;54.87;99696.50;4502124;31;20096;-72
2022/04/05 08:41:18;;;;;;;11.93;7.00;;;;;;;10.60;56.48;99692.41;4502375;31;20096;-69
2022/04/05 08:43:48;;;;;;;11.63;6.45;;;;;;;10.73;57.72;99701.72;4502221;31;20155;-70
2022/04/05 08:46:15;;;;;;;8.60;6.28;;;;;;;10.81;57.97;99693.63;4504567;31;20139;-70
2022/04/05 08:48:46;;;;;;;12.52;7.28;;;;;;;10.91;58.64;99694.28;4509738;31;20088;-69
2022/04/05 08:51:14;;;;;;;10.82;6.50;;;;;;;10.99;58.32;99687.06;4516768;31;20802;-69
2022/04/05 08:53:41;;;;;;;9.13;6.53;;;;;;;10.56;59.18;99685.44;4518070;31;20110;-70
2022/04/05 08:56:08;;;;;;;9.07;5.85;;;;;;;10.78;58.79;99680.56;4518062;31;20147;-70
2022/04/05 08:58:36;;;;;;;11.43;6.47;;;;;;;11.01;58.97;99675.56;4515520;31;20100;-70
2022/04/05 09:01:03;;;;;;;11.12;5.90;;;;;;;11.18;58.84;99680.41;4503338;31;20129;-70
2022/04/05 09:03:32;;;;;;;13.45;7.05;;;;;;;11.44;55.65;99684.16;4501847;31;20095;-70
2022/04/05 09:06:30;;;;;;;7.68;6.18;;;;;;;11.68;55.31;99666.78;4501800;31;20113;-69
2022/04/05 09:09:18;;;;;;;17.25;6.53;;;;;;;11.80;54.57;99670.84;4501901;31;20111;-70
2022/04/05 09:11:50;;;;;;;13.43;6.85;;;;;;;11.80;55.46;99673.47;4501890;31;20542;-71
2022/04/05 09:14:28;;;;;;;11.57;6.62;;;;;;;11.98;53.27;99677.41;4501645;31;20102;-71
2022/04/05 09:17:07;;;;;;;10.45;6.18;;;;;;;11.83;53.82;99676.03;4501757;31;20068;-69
2022/04/05 09:19:42;;;;;;;12.57;7.10;;;;;;;11.50;54.80;99673.44;4501707;31;20085;-70
2022/04/05 09:22:10;;;;;;;9.50;6.20;;;;;;;11.68;55.91;99675.56;4501150;31;20167;-70
2022/04/05 09:24:40;;;;;;;7.68;6.18;;;;;;;12.01;55.22;99675.53;4501075;31;20088;-69
2022/04/05 09:27:07;;;;;;;9.65;5.70;;;;;;;11.89;53.11;99676.78;4501902;31;20429;-70
2022/04/05 09:29:43;;;;;;;10.70;6.32;;;;;;;11.58;53.42;99679.38;4506580;31;20099;-70
2022/04/05 09:32:30;;;;;;;18.67;6.43;;;;;;;11.48;55.11;99672.59;4509849;31;20087;-70
2022/04/05 09:34:58;;;;;;;7.22;5.75;;;;;;;11.59;54.52;99673.19;4509922;31;20178;-72
2022/04/05 09:37:26;;;;;;;10.50;5.65;;;;;;;11.66;53.49;99671.22;4510779;31;20107;-70
2022/04/05 09:39:55;;;;;;;7.25;5.60;;;;;;;11.67;57.27;99676.47;4504767;31;20130;-70
2022/04/05 09:42:22;;;;;;;10.90;5.78;;;;;;;11.80;55.59;99676.13;4507055;31;20769;-71
2022/04/05 09:44:49;;;;;;;8.15;5.07;;;;;;;11.76;53.57;99679.75;4510124;31;20119;-72
2022/04/05 09:47:22;;;;;;;13.27;6.43;;;;;;;11.63;54.56;99681.91;4501219;31;20759;-72
2022/04/05 09:49:50;;;;;;;13.23;5.60;;;;;;;11.18;55.66;99677.78;4512708;31;20114;-72
2022/04/05 09:52:29;;;;;;;6.43;5.72;;;;;;;10.97;55.62;99676.56;4517221;31;20130;-73
2022/04/05 09:55:12;;;;;;;9.60;6.40;;;;;;;10.68;57.43;99692.22;4501090;31;20168;-71
2022/04/05 09:57:41;;;;;;;16.85;6.85;;;;;;;10.68;57.97;99679.91;4500945;31;20490;-72
2022/04/05 10:00:17;;;;;;;7.70;5.90;;;;;;;10.68;58.97;99685.16;4511102;31;20509;-69
2022/04/05 10:03:03;;;;;;;11.03;6.00;;;;;;;11.13;58.25;99676.16;4501830;31;20574;-72
2022/04/05 10:05:31;;;;;;;8.98;6.10;;;;;;;11.42;57.38;99675.44;4502693;31;20760;-72
2022/04/05 10:08:00;;;;;;;9.57;5.78;;;;;;;11.21;56.88;99679.50;4503124;31;20115;-71
2022/04/05 10:10:27;;;;;;;6.45;5.25;;;;;;;11.37;56.56;99674.66;4502940;31;20445;-70
2022/04/05 10:12:54;;;;;;;12.43;5.85;;;;;;;11.73;56.21;99673.69;4502943;31;20095;-72
2022/04/05 10:15:24;;;;;;;8.75;5.78;;;;;;;11.61;56.27;99681.06;4502998;31;20204;-72
2022/04/05 10:17:57;;;;;;;8.43;6.00;;;;;;;11.92;56.08;99681.97;4503103;31;20122;-71
2022/04/05 10:20:28;;;;;;;7.60;6.10;;;;;;;11.93;54.58;99673.13;4502955;31;20088;-71
2022/04/05 10:22:57;;;;;;;17.35;5.87;;;;;;;11.77;55.95;99669.19;4502721;31;20126;-71
2022/04/05 10:25:25;;;;;;;10.18;5.62;;;;;;;12.12;54.37;99665.56;4502299;31;20192;-72
2022/04/05 10:27:53;;;;;;;11.12;6.45;;;;;;;12.55;53.77;99673.94;4501910;31;20104;-70
2022/04/05 10:30:35;;;;;;;7.72;6.15;;;;;;;13.06;52.59;99667.88;4502401;31;20104;-72
2022/04/05 10:33:10;;;;;;;8.15;6.07;;;;;;;13.65;49.68;99658.81;4502420;31;20479;-72
2022/04/05 10:35:53;;;;;;;7.43;5.40;;;;;;;14.26;47.91;99657.37;4502450;31;20719;-72
2022/04/05 10:38:21;;;;;;;8.02;5.65;;;;;;;13.97;47.07;99661.16;4502484;31;20100;-72
2022/04/05 10:41:23;;;;;;;8.43;5.43;;;;;;;13.85;47.48;99665.13;4502629;31;20088;-72
2022/04/05 10:44:27;;;;;;;7.10;5.05;;;;;;;13.80;45.72;99655.59;4508196;31;20107;-70
2022/04/05 10:46:57;;;;;;;10.27;5.22;;;;;;;13.77;43.18;99666.31;4444294;32;20108;-71
2022/04/05 10:49:50;;;;;;;7.15;4.18;;;;;;;13.80;43.70;99660.91;4507160;31;20140;-70
2022/04/05 10:52:31;;;;;;;7.85;3.78;;;;;;;13.50;43.63;99647.88;4502977;31;20512;-69
2022/04/05 10:55:06;;;;;;;7.82;4.30;;;;;;;13.45;45.05;99656.88;4509015;31;20122;-70
2022/04/05 10:57:40;;;;;;;5.85;4.20;;;;;;;13.95;42.81;99654.16;4518948;31;20502;-71
2022/04/05 11:00:19;;;;;;;5.75;4.53;;;;;;;14.26;42.86;99662.69;4519065;31;20514;-70
2022/04/05 11:02:52;;;;;;;9.13;4.22;;;;;;;14.03;43.90;99652.97;4518401;31;20151;-70
2022/04/05 11:05:24;;;;;;;8.05;3.65;;;;;;;14.00;42.17;99678.72;4518742;31;20087;-70
2022/04/05 11:07:51;;;;;;;5.62;4.12;;;;;;;14.00;42.31;99653.09;4518979;31;20075;-70
2022/04/05 11:10:39;;;;;;;7.50;4.12;;;;;;;14.51;42.52;99646.72;4518805;31;20091;-71
2022/04/05 11:13:15;;;;;;;8.23;4.00;;;;;;;15.05;42.87;99647.16;4494406;31;20167;-72
2022/04/05 11:15:45;;;;;;;5.07;3.80;;;;;;;15.48;42.54;99654.19;4502650;31;20107;-71
2022/04/05 11:18:19;;;;;;;4.85;2.83;;;;;;;16.16;39.88;99649.38;4507613;31;20158;-70
2022/04/05 11:20:48;;;;;;;3.92;2.90;;;;;;;16.19;38.63;99659.00;4503867;31;20125;-70
2022/04/05 11:23:19;;;;;;;3.58;3.20;;;;;;;16.15;38.07;99649.47;4514569;31;20228;-72
2022/04/05 11:25:47;;;;;;;2.97;2.70;;;;;;;17.17;37.53;99663.13;4514822;31;20452;-72
2022/04/05 11:28:19;;;;;;;4.50;3.08;;;;;;;16.21;39.13;99649.16;4505909;31;20100;-72
2022/04/05 11:30:55;;;;;;;4.50;2.78;;;;;;;15.95;38.55;99653.03;4517366;31;20142;-72
2022/04/05 11:33:35;;;;;;;4.80;2.50;;;;;;;15.89;39.09;99642.66;4517289;31;20084;-72
2022/04/05 11:36:13;;;;;;;3.15;2.85;;;;;;;15.84;39.55;99647.34;4517389;31;20162;-71
2022/04/05 11:38:53;;;;;;;7.35;2.28;;;;;;;15.10;41.18;99647.84;4506638;31;20084;-72
2022/04/05 11:41:22;;;;;;;3.15;2.20;;;;;;;14.73;41.21;99644.06;4502004;31;20154;-71